Yorktown Express — WDD6127 — position and weather

sailwx.info

Track history (hours):
 
Tides and Currents Weather Stations Pressure Air Temp Water Temp Dewpoint Dewpoint Depression Visibility Wind Speed Wind Dir Waves Ship Positions

Yorktown Express

Owner: Marine Transport Management, Inc., Jacksonville, FL. More information available from US FCC via Universal Licensing System and Coast Guard Vessel Documentation Center.

Last reported at 2015-May-05 02:33 UTC. Time now 2015-May-05 03:08 UTC.
Position N 50°38' E 000°35'.

Type: Ship. MMSI: 367168650.

Date/timePositionNaut miles runAvg speedWind from/ knotsBaromVisibWave heightAir tempDewpointWater temp
2015-May-05 02:33N 50°38' E 000°35'1817.5
2015-May-05 01:33N 50°47' E 000°58'1616.0
2015-May-05 00:33N 50°56' E 001°19'1515.5
2015-May-04 23:33N 51°07' E 001°37'1717.5
2015-May-04 22:34N 51°21' E 001°54'2019.6
2015-May-04 21:33N 51°36' E 002°13'8319.2
2015-May-04 17:15N 52°41' E 003°36'1217.2
2015-May-04 16:33N 52°50' E 003°49'1716.8
2015-May-04 15:33N 53°02' E 004°09'1717.0
2015-May-04 14:33N 53°14' E 004°28'1817.9
2015-May-04 13:33N 53°30' E 004°44'1919.3
2015-May-04 12:33N 53°37' E 005°14'1918.5
2015-May-04 11:33N 53°42' E 005°44'1817.7
2015-May-04 10:33N 53°47' E 006°12'3416.8
2015-May-04 08:33N 53°56' E 007°08'1616.5
2015-May-04 07:33N 53°59' E 007°35'1313.1
2015-May-04 06:33N 53°52' E 007°54'1111.1
2015-May-04 05:33N 53°46' E 008°10'1515.5
2015-May-04 04:33N 53°36' E 008°30'1 1.3
2015-May-04 03:31N 53°35' E 008°32'0 0.0
2015-May-04 02:31N 53°35' E 008°32'0 0.0
2015-May-04 01:31N 53°35' E 008°32'0 0.0
2015-May-04 00:31N 53°35' E 008°32'0 0.0
2015-May-03 23:31N 53°35' E 008°32'0 0.0
2015-May-03 22:31N 53°35' E 008°32'0 0.0
2015-May-03 21:31N 53°35' E 008°32'0 0.0
2015-May-03 20:31N 53°35' E 008°32'0 0.0
2015-May-03 19:28N 53°35' E 008°32'0 0.0
2015-May-03 18:28N 53°35' E 008°32'0 0.0
2015-May-03 17:31N 53°35' E 008°32'0 0.0
2015-May-03 16:31N 53°35' E 008°32'0 0.0
2015-May-03 15:31N 53°35' E 008°32'0 0.0
2015-May-03 14:31N 53°35' E 008°32'0 0.0
2015-May-03 13:31N 53°35' E 008°32'0 0.0
2015-May-03 12:31N 53°35' E 008°32'0 0.0
2015-May-03 11:31N 53°35' E 008°32'0 0.0
2015-May-03 10:31N 53°35' E 008°32'0 0.0
2015-May-03 09:31N 53°35' E 008°32'0 0.0
2015-May-03 08:31N 53°35' E 008°32'0 0.0
2015-May-03 07:31N 53°35' E 008°32'0 0.0
2015-May-03 06:31N 53°35' E 008°32'0 0.0
2015-May-03 05:31N 53°35' E 008°32'0 0.0
2015-May-03 04:31N 53°35' E 008°32'0 0.0
2015-May-03 03:31N 53°35' E 008°32'0 0.0
2015-May-03 02:31N 53°35' E 008°32'0 0.0
2015-May-03 01:22N 53°35' E 008°32'0 0.0
2015-May-03 00:31N 53°35' E 008°32'0 0.0
2015-May-02 23:31N 53°35' E 008°32'0 0.0
2015-May-02 22:31N 53°35' E 008°32'0 0.0
2015-May-02 21:31N 53°35' E 008°32'0 0.0
2015-May-02 20:31N 53°35' E 008°32'0 0.1
2015-May-02 19:33N 53°35' E 008°31'1312.7
2015-May-02 18:34N 53°44' E 008°15'1616.1
2015-May-02 17:33N 53°52' E 007°52'4 4.2
2015-May-02 16:33N 53°54' E 007°46'0 0.0
2015-May-02 15:33N 53°54' E 007°46'0 0.1
2015-May-02 14:33N 53°54' E 007°46'0 0.0
2015-May-02 13:24N 53°54' E 007°46'0 0.1
2015-May-02 12:33N 53°54' E 007°46'0 0.1
2015-May-02 11:33N 53°54' E 007°46'0 0.1
2015-May-02 10:30N 53°54' E 007°46'0 0.0
2015-May-02 09:27N 53°54' E 007°46'0 0.0
2015-May-02 08:33N 53°54' E 007°46'0 0.0
2015-May-02 07:27N 53°54' E 007°46'1 1.6
2015-May-02 06:33N 53°54' E 007°44'1211.8
2015-May-02 05:33N 53°53' E 007°24'1413.7
2015-May-02 04:33N 53°50' E 007°01'2613.1
2015-May-02 02:33N 53°44' E 006°18'1211.9
2015-May-02 01:33N 53°40' E 005°59'9 9.2
2015-May-02 00:33N 53°37' E 005°44'9 9.0
2015-May-01 23:33N 53°35' E 005°30'9 8.8
2015-May-01 22:33N 53°32' E 005°16'9 9.1
2015-May-01 21:33N 53°29' E 005°02'9 9.3
2015-May-01 20:33N 53°26' E 004°47'12 9.3
2015-May-01 19:19N 53°16' E 004°36'7 9.7
2015-May-01 18:33N 53°09' E 004°30'1010.2
2015-May-01 17:33N 53°01' E 004°22'1110.5
2015-May-01 16:33N 52°51' E 004°15'1110.7
2015-May-01 15:33N 52°43' E 004°03'1110.8
2015-May-01 14:33N 52°35' E 003°51'1110.8
2015-May-01 13:33N 52°27' E 003°39'1110.7
2015-May-01 12:33N 52°18' E 003°29'1312.4
2015-May-01 11:31N 52°06' E 003°25'1313.8
2015-May-01 10:33N 51°53' E 003°20'1212.2
2015-May-01 09:32N 51°41' E 003°13'1212.4
2015-May-01 08:33N 51°30' E 003°04'7 7.1
2015-May-01 07:34N 51°24' E 003°10'1414.2
2015-May-01 06:33N 51°26' E 003°32'1111.2
2015-May-01 05:33N 51°21' E 003°48'1010.0
2015-May-01 04:33N 51°22' E 004°04'8 7.8
2015-May-01 03:33N 51°20' E 004°17'0 0.0
2015-May-01 02:33N 51°20' E 004°17'0 0.0
2015-May-01 01:33N 51°20' E 004°17'0 0.0
2015-May-01 00:33N 51°20' E 004°17'0 0.0
2015-Apr-30 23:33N 51°20' E 004°17'0 0.0
2015-Apr-30 22:33N 51°20' E 004°17'0 0.0
2015-Apr-30 21:30N 51°20' E 004°17'0 0.0
2015-Apr-30 20:33N 51°20' E 004°17'0 0.0
2015-Apr-30 19:33N 51°20' E 004°17'0 0.0
2015-Apr-30 18:33N 51°20' E 004°17'0 0.0
2015-Apr-30 17:33N 51°20' E 004°17'0 0.0
2015-Apr-30 16:33N 51°20' E 004°17'0 0.0
2015-Apr-30 15:33N 51°20' E 004°17'0 0.0
2015-Apr-30 14:33N 51°20' E 004°17'0 0.0
2015-Apr-30 13:33N 51°20' E 004°17'0 0.0
2015-Apr-30 12:33N 51°20' E 004°17'0 0.0
2015-Apr-30 11:33N 51°20' E 004°17'0 0.0
2015-Apr-30 10:33N 51°20' E 004°17'0 0.0
2015-Apr-30 09:33N 51°20' E 004°17'0 0.0
2015-Apr-30 08:33N 51°20' E 004°17'0 0.0
2015-Apr-30 07:33N 51°20' E 004°17'0 0.0
2015-Apr-30 06:33N 51°20' E 004°17'0 0.0
2015-Apr-30 05:33N 51°20' E 004°17'0 0.0
2015-Apr-30 04:33N 51°20' E 004°17'0 0.0
2015-Apr-30 03:33N 51°20' E 004°17'0 0.0
2015-Apr-30 02:33N 51°20' E 004°17'0 0.0
2015-Apr-30 01:33N 51°20' E 004°17'0 0.0
2015-Apr-30 00:33N 51°20' E 004°17'0 0.0
2015-Apr-29 23:33N 51°20' E 004°17'0 0.0
2015-Apr-29 22:34N 51°20' E 004°17'7 7.4
2015-Apr-29 21:34N 51°22' E 004°05'10 9.6
2015-Apr-29 20:34N 51°21' E 003°50'1111.2
2015-Apr-29 19:33N 51°25' E 003°34'1717.1
2015-Apr-29 18:33N 51°24' E 003°06'1514.8
2015-Apr-29 17:33N 51°22' E 002°43'1211.6
2015-Apr-29 16:33N 51°20' E 002°24'1312.7
2015-Apr-29 15:34N 51°14' E 002°07'1716.5
2015-Apr-29 14:34N 51°06' E 001°44'1716.5
2015-Apr-29 13:33N 50°52' E 001°28'2617.8
2015-Apr-29 12:07N 50°33' E 001°03'1418.1
2015-Apr-29 11:19N 50°28' E 000°41'1518.4
2015-Apr-29 10:31N 50°24' E 000°19'14019.6
2015-Apr-29 03:23N 49°49' W 003°12'  
Track history (hours):
 
Tides and Currents Weather Stations Pressure Air Temp Water Temp Dewpoint Dewpoint Depression Visibility Wind Speed Wind Dir Waves Ship Positions

Yorktown Express

Owner: Marine Transport Management, Inc., Jacksonville, FL. More information available from US FCC via Universal Licensing System and Coast Guard Vessel Documentation Center.

Last reported at 2015-May-05 02:33 UTC. Time now 2015-May-05 03:08 UTC.
Position N 50°38' E 000°35'.

Type: Ship. MMSI: 367168650.

Date/timePositionNaut miles runAvg speedWind from/ knotsBaromVisibWave heightAir tempDewpointWater temp
2015-May-05 02:33N 50°38' E 000°35'1817.5
2015-May-05 01:33N 50°47' E 000°58'1616.0
2015-May-05 00:33N 50°56' E 001°19'1515.5
2015-May-04 23:33N 51°07' E 001°37'1717.5
2015-May-04 22:34N 51°21' E 001°54'2019.6
2015-May-04 21:33N 51°36' E 002°13'8319.2
2015-May-04 17:15N 52°41' E 003°36'1217.2
2015-May-04 16:33N 52°50' E 003°49'1716.8
2015-May-04 15:33N 53°02' E 004°09'1717.0
2015-May-04 14:33N 53°14' E 004°28'1817.9
2015-May-04 13:33N 53°30' E 004°44'1919.3
2015-May-04 12:33N 53°37' E 005°14'1918.5
2015-May-04 11:33N 53°42' E 005°44'1817.7
2015-May-04 10:33N 53°47' E 006°12'3416.8
2015-May-04 08:33N 53°56' E 007°08'1616.5
2015-May-04 07:33N 53°59' E 007°35'1313.1
2015-May-04 06:33N 53°52' E 007°54'1111.1
2015-May-04 05:33N 53°46' E 008°10'1515.5
2015-May-04 04:33N 53°36' E 008°30'1 1.3
2015-May-04 03:31N 53°35' E 008°32'0 0.0
2015-May-04 02:31N 53°35' E 008°32'0 0.0
2015-May-04 01:31N 53°35' E 008°32'0 0.0
2015-May-04 00:31N 53°35' E 008°32'0 0.0
2015-May-03 23:31N 53°35' E 008°32'0 0.0
2015-May-03 22:31N 53°35' E 008°32'0 0.0
2015-May-03 21:31N 53°35' E 008°32'0 0.0
2015-May-03 20:31N 53°35' E 008°32'0 0.0
2015-May-03 19:28N 53°35' E 008°32'0 0.0
2015-May-03 18:28N 53°35' E 008°32'0 0.0
2015-May-03 17:31N 53°35' E 008°32'0 0.0
2015-May-03 16:31N 53°35' E 008°32'0 0.0
2015-May-03 15:31N 53°35' E 008°32'0 0.0
2015-May-03 14:31N 53°35' E 008°32'0 0.0
2015-May-03 13:31N 53°35' E 008°32'0 0.0
2015-May-03 12:31N 53°35' E 008°32'0 0.0
2015-May-03 11:31N 53°35' E 008°32'0 0.0
2015-May-03 10:31N 53°35' E 008°32'0 0.0
2015-May-03 09:31N 53°35' E 008°32'0 0.0
2015-May-03 08:31N 53°35' E 008°32'0 0.0
2015-May-03 07:31N 53°35' E 008°32'0 0.0
2015-May-03 06:31N 53°35' E 008°32'0 0.0
2015-May-03 05:31N 53°35' E 008°32'0 0.0
2015-May-03 04:31N 53°35' E 008°32'0 0.0
2015-May-03 03:31N 53°35' E 008°32'0 0.0
2015-May-03 02:31N 53°35' E 008°32'0 0.0
2015-May-03 01:22N 53°35' E 008°32'0 0.0
2015-May-03 00:31N 53°35' E 008°32'0 0.0
2015-May-02 23:31N 53°35' E 008°32'0 0.0
2015-May-02 22:31N 53°35' E 008°32'0 0.0
2015-May-02 21:31N 53°35' E 008°32'0 0.0
2015-May-02 20:31N 53°35' E 008°32'0 0.1
2015-May-02 19:33N 53°35' E 008°31'1312.7
2015-May-02 18:34N 53°44' E 008°15'1616.1
2015-May-02 17:33N 53°52' E 007°52'4 4.2
2015-May-02 16:33N 53°54' E 007°46'0 0.0
2015-May-02 15:33N 53°54' E 007°46'0 0.1
2015-May-02 14:33N 53°54' E 007°46'0 0.0
2015-May-02 13:24N 53°54' E 007°46'0 0.1
2015-May-02 12:33N 53°54' E 007°46'0 0.1
2015-May-02 11:33N 53°54' E 007°46'0 0.1
2015-May-02 10:30N 53°54' E 007°46'0 0.0
2015-May-02 09:27N 53°54' E 007°46'0 0.0
2015-May-02 08:33N 53°54' E 007°46'0 0.0
2015-May-02 07:27N 53°54' E 007°46'1 1.6
2015-May-02 06:33N 53°54' E 007°44'1211.8
2015-May-02 05:33N 53°53' E 007°24'1413.7
2015-May-02 04:33N 53°50' E 007°01'2613.1
2015-May-02 02:33N 53°44' E 006°18'1211.9
2015-May-02 01:33N 53°40' E 005°59'9 9.2
2015-May-02 00:33N 53°37' E 005°44'9 9.0
2015-May-01 23:33N 53°35' E 005°30'9 8.8
2015-May-01 22:33N 53°32' E 005°16'9 9.1
2015-May-01 21:33N 53°29' E 005°02'9 9.3
2015-May-01 20:33N 53°26' E 004°47'12 9.3
2015-May-01 19:19N 53°16' E 004°36'7 9.7
2015-May-01 18:33N 53°09' E 004°30'1010.2
2015-May-01 17:33N 53°01' E 004°22'1110.5
2015-May-01 16:33N 52°51' E 004°15'1110.7
2015-May-01 15:33N 52°43' E 004°03'1110.8
2015-May-01 14:33N 52°35' E 003°51'1110.8
2015-May-01 13:33N 52°27' E 003°39'1110.7
2015-May-01 12:33N 52°18' E 003°29'1312.4
2015-May-01 11:31N 52°06' E 003°25'1313.8
2015-May-01 10:33N 51°53' E 003°20'1212.2
2015-May-01 09:32N 51°41' E 003°13'1212.4
2015-May-01 08:33N 51°30' E 003°04'7 7.1
2015-May-01 07:34N 51°24' E 003°10'1414.2
2015-May-01 06:33N 51°26' E 003°32'1111.2
2015-May-01 05:33N 51°21' E 003°48'1010.0
2015-May-01 04:33N 51°22' E 004°04'8 7.8
2015-May-01 03:33N 51°20' E 004°17'0 0.0
2015-May-01 02:33N 51°20' E 004°17'0 0.0
2015-May-01 01:33N 51°20' E 004°17'0 0.0
2015-May-01 00:33N 51°20' E 004°17'0 0.0
2015-Apr-30 23:33N 51°20' E 004°17'0 0.0
2015-Apr-30 22:33N 51°20' E 004°17'0 0.0
2015-Apr-30 21:30N 51°20' E 004°17'0 0.0
2015-Apr-30 20:33N 51°20' E 004°17'0 0.0
2015-Apr-30 19:33N 51°20' E 004°17'0 0.0
2015-Apr-30 18:33N 51°20' E 004°17'0 0.0
2015-Apr-30 17:33N 51°20' E 004°17'0 0.0
2015-Apr-30 16:33N 51°20' E 004°17'0 0.0
2015-Apr-30 15:33N 51°20' E 004°17'0 0.0
2015-Apr-30 14:33N 51°20' E 004°17'0 0.0
2015-Apr-30 13:33N 51°20' E 004°17'0 0.0
2015-Apr-30 12:33N 51°20' E 004°17'0 0.0
2015-Apr-30 11:33N 51°20' E 004°17'0 0.0
2015-Apr-30 10:33N 51°20' E 004°17'0 0.0
2015-Apr-30 09:33N 51°20' E 004°17'0 0.0
2015-Apr-30 08:33N 51°20' E 004°17'0 0.0
2015-Apr-30 07:33N 51°20' E 004°17'0 0.0
2015-Apr-30 06:33N 51°20' E 004°17'0 0.0
2015-Apr-30 05:33N 51°20' E 004°17'0 0.0
2015-Apr-30 04:33N 51°20' E 004°17'0 0.0
2015-Apr-30 03:33N 51°20' E 004°17'0 0.0
2015-Apr-30 02:33N 51°20' E 004°17'0 0.0
2015-Apr-30 01:33N 51°20' E 004°17'0 0.0
2015-Apr-30 00:33N 51°20' E 004°17'0 0.0
2015-Apr-29 23:33N 51°20' E 004°17'0 0.0
2015-Apr-29 22:34N 51°20' E 004°17'7 7.4
2015-Apr-29 21:34N 51°22' E 004°05'10 9.6
2015-Apr-29 20:34N 51°21' E 003°50'1111.2
2015-Apr-29 19:33N 51°25' E 003°34'1717.1
2015-Apr-29 18:33N 51°24' E 003°06'1514.8
2015-Apr-29 17:33N 51°22' E 002°43'1211.6
2015-Apr-29 16:33N 51°20' E 002°24'1312.7
2015-Apr-29 15:34N 51°14' E 002°07'1716.5
2015-Apr-29 14:34N 51°06' E 001°44'1716.5
2015-Apr-29 13:33N 50°52' E 001°28'2617.8
2015-Apr-29 12:07N 50°33' E 001°03'1418.1
2015-Apr-29 11:19N 50°28' E 000°41'1518.4
2015-Apr-29 10:31N 50°24' E 000°19'14019.6
2015-Apr-29 03:23N 49°49' W 003°12'  

Dump ship's entire track history